Time;durP1;ratioP1;P1;durP2;ratioP2;P2;SDS_P1;SDS_P2;PMS_P1;PMS_P2;Temp;Humidity;BMP_temperature;BMP_pressure;BME280_temperature;BME280_humidity;BME280_pressure;Samples;Min_cycle;Max_cycle;Signal;HPM_P1;HPM_P2
2022/11/19 00:00:34;;;;;;;23.45;12.07;;;1.80;99.90;;;;;;5052192;28;20403;-66
2022/11/19 00:03:00;;;;;;;22.40;11.52;;;1.80;99.90;;;;;;5042281;28;20509;-66
2022/11/19 00:05:25;;;;;;;24.48;12.23;;;1.80;99.90;;;;;;5041824;28;20048;-66
2022/11/19 00:07:51;;;;;;;22.25;11.88;;;1.90;99.90;;;;;;5051454;28;20052;-66
2022/11/19 00:10:17;;;;;;;19.08;11.38;;;1.90;99.90;;;;;;5051654;28;20088;-64
2022/11/19 00:12:54;;;;;;;20.48;11.50;;;1.90;99.90;;;;;;5034031;28;20527;-67
2022/11/19 00:15:21;;;;;;;20.88;11.70;;;1.90;99.90;;;;;;5048504;28;20048;-66
2022/11/19 00:17:46;;;;;;;20.73;11.63;;;1.90;99.90;;;;;;5051697;28;20142;-66
2022/11/19 00:20:18;;;;;;;21.00;11.40;;;1.80;99.90;;;;;;5034096;28;20513;-66
2022/11/19 00:22:44;;;;;;;21.25;11.23;;;1.80;99.90;;;;;;5048879;28;20033;-65
2022/11/19 00:25:10;;;;;;;21.83;12.10;;;1.80;99.90;;;;;;5051284;28;20402;-65
2022/11/19 00:27:36;;;;;;;19.42;11.05;;;1.80;99.90;;;;;;5051617;28;20041;-65
2022/11/19 00:30:03;;;;;;;19.95;10.93;;;1.80;99.90;;;;;;5039731;28;20052;-66
2022/11/19 00:32:30;;;;;;;22.55;11.25;;;1.80;99.90;;;;;;5020845;28;20124;-65
2022/11/19 00:34:56;;;;;;;21.08;11.55;;;1.80;99.90;;;;;;5051138;28;20437;-66
2022/11/19 00:37:22;;;;;;;22.00;11.75;;;1.80;99.90;;;;;;5042992;28;20537;-65
2022/11/19 00:39:47;;;;;;;20.92;10.60;;;1.80;99.90;;;;;;5057090;28;20036;-66
2022/11/19 00:42:13;;;;;;;22.08;11.52;;;1.70;99.90;;;;;;5057616;28;20040;-65
2022/11/19 00:44:38;;;;;;;19.40;10.40;;;1.70;99.90;;;;;;5054140;28;20056;-66
2022/11/19 00:47:04;;;;;;;21.20;12.10;;;1.70;99.90;;;;;;5050901;28;20434;-65
2022/11/19 00:49:30;;;;;;;19.17;10.93;;;1.70;99.90;;;;;;5056674;28;20045;-66
2022/11/19 00:51:55;;;;;;;20.15;10.75;;;1.70;99.90;;;;;;5056424;28;20040;-65
2022/11/19 00:54:21;;;;;;;17.27;9.80;;;1.70;99.90;;;;;;5037599;28;20037;-65
2022/11/19 00:56:46;;;;;;;19.10;9.52;;;1.70;99.90;;;;;;5051641;28;20110;-66
2022/11/19 00:59:12;;;;;;;17.90;10.82;;;1.70;99.90;;;;;;5057907;28;20045;-66
2022/11/19 01:01:38;;;;;;;15.32;8.98;;;1.60;99.90;;;;;;5050176;28;20040;-66
2022/11/19 01:04:04;;;;;;;15.82;8.52;;;1.60;99.90;;;;;;5050124;28;20045;-66
2022/11/19 01:06:30;;;;;;;16.65;8.50;;;1.60;99.90;;;;;;5046387;28;20045;-66
2022/11/19 01:08:56;;;;;;;18.58;9.57;;;1.60;99.90;;;;;;5053476;28;20111;-66
2022/11/19 01:11:25;;;;;;;15.73;8.13;;;1.60;99.90;;;;;;5037094;28;20540;-66
2022/11/19 01:13:52;;;;;;;17.17;9.45;;;1.60;99.90;;;;;;5057195;28;20610;-66
2022/11/19 01:16:21;;;;;;;19.02;9.48;;;1.60;99.90;;;;;;5056406;28;20045;-66
2022/11/19 01:18:48;;;;;;;15.73;8.15;;;1.60;99.90;;;;;;5043559;28;20045;-66
2022/11/19 01:21:15;;;;;;;14.38;7.63;;;1.50;99.90;;;;;;5056069;28;20029;-66
2022/11/19 01:23:42;;;;;;;15.93;8.50;;;1.60;99.90;;;;;;5058051;28;20080;-66
2022/11/19 01:26:09;;;;;;;12.40;6.85;;;1.50;99.90;;;;;;5050620;28;20041;-65
2022/11/19 01:28:35;;;;;;;11.38;6.63;;;1.50;99.90;;;;;;5047453;28;20411;-66
2022/11/19 01:31:06;;;;;;;12.82;7.85;;;1.50;99.90;;;;;;5057164;28;20044;-66
2022/11/19 01:33:33;;;;;;;13.05;7.20;;;1.50;99.90;;;;;;5053846;28;20506;-66
2022/11/19 01:36:01;;;;;;;12.88;6.95;;;1.50;99.90;;;;;;5056488;28;20041;-66
2022/11/19 01:38:28;;;;;;;13.50;7.93;;;1.50;99.90;;;;;;5058803;28;20032;-66
2022/11/19 01:40:54;;;;;;;13.32;6.28;;;1.50;99.90;;;;;;5077498;28;20037;-66
2022/11/19 01:43:38;;;;;;;13.00;6.85;;;1.50;99.90;;;;;;5063154;28;20037;-65
2022/11/19 01:46:03;;;;;;;11.40;6.78;;;1.50;99.90;;;;;;5056960;28;20044;-67
2022/11/19 01:48:34;;;;;;;13.52;7.18;;;1.40;99.90;;;;;;5037820;28;20055;-66
2022/11/19 01:51:08;;;;;;;11.30;6.87;;;1.40;99.90;;;;;;5054223;28;20063;-66
2022/11/19 01:53:35;;;;;;;10.20;5.78;;;1.40;99.90;;;;;;5035689;28;20295;-66
2022/11/19 01:56:03;;;;;;;9.50;5.32;;;1.40;99.90;;;;;;5052229;28;20045;-66
2022/11/19 01:58:32;;;;;;;10.98;6.18;;;1.30;99.90;;;;;;5054268;28;20040;-66
2022/11/19 02:00:58;;;;;;;11.25;5.93;;;1.30;99.90;;;;;;5043457;28;20097;-66
2022/11/19 02:03:25;;;;;;;11.25;6.40;;;1.30;99.90;;;;;;5053714;28;20036;-66
2022/11/19 02:05:51;;;;;;;10.13;5.88;;;1.30;99.90;;;;;;5054277;28;20037;-66
2022/11/19 02:08:44;;;;;;;10.40;6.22;;;1.20;99.90;;;;;;5046838;28;20402;-66
2022/11/19 02:11:15;;;;;;;9.35;5.40;;;1.20;99.90;;;;;;5050481;28;20491;-66
2022/11/19 02:13:49;;;;;;;10.55;5.95;;;1.20;99.90;;;;;;5052348;28;20037;-66
2022/11/19 02:16:30;;;;;;;12.60;6.75;;;1.10;99.90;;;;;;5044304;28;20041;-66
2022/11/19 02:19:26;;;;;;;12.32;6.15;;;1.10;99.90;;;;;;5044442;28;20045;-66
2022/11/19 02:22:25;;;;;;;12.73;6.38;;;1.10;99.90;;;;;;5048139;28;20104;-66
2022/11/19 02:24:55;;;;;;;11.45;5.88;;;1.00;99.90;;;;;;5031168;28;20072;-66
2022/11/19 02:27:32;;;;;;;11.15;6.38;;;1.00;99.90;;;;;;5045025;28;20062;-66
2022/11/19 02:30:02;;;;;;;10.07;5.75;;;1.00;99.90;;;;;;5053247;28;20045;-66
2022/11/19 02:32:35;;;;;;;12.25;6.45;;;1.00;99.90;;;;;;5040866;28;20122;-66
2022/11/19 02:35:13;;;;;;;11.70;6.47;;;0.90;99.90;;;;;;5034808;28;20569;-66
2022/11/19 02:37:59;;;;;;;10.27;5.57;;;0.90;99.90;;;;;;5038225;28;20033;-66
2022/11/19 02:40:35;;;;;;;10.70;5.70;;;0.90;99.90;;;;;;5051359;28;20090;-65
2022/11/19 02:43:18;;;;;;;10.23;6.07;;;0.90;99.90;;;;;;5038964;28;20033;-66
2022/11/19 02:45:51;;;;;;;10.23;5.65;;;0.80;99.90;;;;;;5046903;28;20045;-66
2022/11/19 02:48:24;;;;;;;10.40;6.28;;;0.80;99.90;;;;;;5053244;28;20139;-66
2022/11/19 02:50:56;;;;;;;10.88;6.10;;;0.80;99.90;;;;;;5038263;28;20049;-65
2022/11/19 02:53:22;;;;;;;10.70;6.18;;;0.70;99.90;;;;;;5050008;28;20040;-65
2022/11/19 03:06:50;;;;;;;11.05;5.68;;;0.40;99.90;;;;;;5031775;28;20060;-66
2022/11/19 03:09:16;;;;;;;11.15;6.63;;;0.40;99.90;;;;;;5039075;28;20045;-66
2022/11/19 03:11:47;;;;;;;10.70;6.40;;;0.40;99.90;;;;;;5051921;28;20049;-66
2022/11/19 03:17:24;;;;;;;13.07;5.28;;;0.30;99.90;;;;;;5037277;28;20291;-66
2022/11/19 03:19:57;;;;;;;11.88;6.32;;;0.30;99.90;;;;;;5052410;28;20075;-67
2022/11/19 03:22:32;;;;;;;13.30;6.50;;;0.20;99.90;;;;;;5047522;28;20103;-66
2022/11/19 03:25:21;;;;;;;12.38;7.10;;;0.20;99.90;;;;;;5033747;28;20377;-66
2022/11/19 03:27:51;;;;;;;13.95;6.93;;;0.20;99.90;;;;;;5038911;28;20552;-65
2022/11/19 03:30:18;;;;;;;11.88;7.05;;;0.20;99.90;;;;;;5051077;28;20041;-65
2022/11/19 03:32:52;;;;;;;14.00;7.47;;;0.20;99.90;;;;;;5040924;28;20114;-66
2022/11/19 03:35:24;;;;;;;13.90;7.70;;;0.10;99.90;;;;;;5048744;28;20052;-66
2022/11/19 03:37:53;;;;;;;13.15;6.30;;;0.10;99.90;;;;;;5052265;28;20041;-66
2022/11/19 03:40:21;;;;;;;13.90;7.40;;;0.10;99.90;;;;;;5045339;28;20096;-66
2022/11/19 03:42:51;;;;;;;12.60;7.07;;;0.10;99.90;;;;;;5051130;28;20047;-66
2022/11/19 03:45:21;;;;;;;12.40;6.43;;;0.10;99.90;;;;;;5052111;28;20048;-66
2022/11/19 03:47:50;;;;;;;10.60;6.43;;;0.00;99.90;;;;;;5052138;28;20092;-65
2022/11/19 03:50:47;;;;;;;14.25;7.05;;;0.00;99.90;;;;;;5032413;28;20561;-65
2022/11/19 03:53:13;;;;;;;15.23;7.38;;;0.00;99.90;;;;;;5049188;28;20079;-66
2022/11/19 03:55:44;;;;;;;13.02;7.13;;;0.00;99.90;;;;;;5048313;28;20392;-66
2022/11/19 03:58:10;;;;;;;11.88;6.88;;;0.00;99.90;;;;;;5035902;28;20056;-65
2022/11/19 04:00:36;;;;;;;11.10;6.07;;;-0.10;99.90;;;;;;5051365;28;20074;-66
2022/11/19 04:03:02;;;;;;;12.20;6.50;;;-0.10;99.90;;;;;;5051635;28;20037;-66
2022/11/19 04:05:27;;;;;;;14.82;7.97;;;-0.10;99.90;;;;;;5042032;28;20078;-65
2022/11/19 04:07:53;;;;;;;13.63;7.45;;;-0.10;99.90;;;;;;5046410;28;20037;-66
2022/11/19 04:10:19;;;;;;;13.63;7.03;;;-0.10;99.90;;;;;;5051244;28;20475;-66
2022/11/19 04:12:44;;;;;;;12.85;7.38;;;-0.10;99.90;;;;;;5043306;28;20045;-65
2022/11/19 04:15:11;;;;;;;13.23;7.30;;;-0.10;99.90;;;;;;5044533;28;20037;-66
2022/11/19 04:17:37;;;;;;;12.38;7.07;;;-0.20;99.90;;;;;;5049781;28;20067;-67
2022/11/19 04:20:04;;;;;;;11.80;6.40;;;-0.20;99.90;;;;;;5032029;28;20080;-65
2022/11/19 04:22:30;;;;;;;13.27;7.53;;;-0.20;99.90;;;;;;5031177;28;20045;-65
2022/11/19 04:24:55;;;;;;;14.50;6.40;;;-0.20;99.90;;;;;;5045348;28;20090;-66
2022/11/19 04:27:21;;;;;;;11.00;5.97;;;-0.30;99.90;;;;;;5044936;28;20128;-66
2022/11/19 04:29:47;;;;;;;13.77;7.93;;;-0.20;99.90;;;;;;5029835;28;20049;-66
2022/11/19 04:32:12;;;;;;;10.88;6.00;;;-0.30;99.90;;;;;;5046233;28;20850;-66
2022/11/19 04:34:38;;;;;;;14.27;7.45;;;-0.30;99.90;;;;;;5048628;28;20122;-66
2022/11/19 04:37:03;;;;;;;10.15;5.68;;;-0.30;99.90;;;;;;5050610;28;20033;-66
2022/11/19 04:39:29;;;;;;;12.38;6.80;;;-0.40;99.90;;;;;;5051554;28;20044;-67
2022/11/19 04:41:54;;;;;;;11.90;6.63;;;-0.40;99.90;;;;;;5036252;28;20040;-65
2022/11/19 04:44:20;;;;;;;13.32;7.10;;;-0.40;99.90;;;;;;5049665;28;20039;-66
2022/11/19 04:46:45;;;;;;;12.13;6.10;;;-0.50;99.90;;;;;;5044806;28;20045;-67
2022/11/19 04:49:11;;;;;;;14.88;7.20;;;-0.50;99.90;;;;;;5045564;28;20041;-66
2022/11/19 04:51:37;;;;;;;13.27;6.68;;;-0.50;99.90;;;;;;5042203;28;20037;-67
2022/11/19 04:54:02;;;;;;;11.32;6.25;;;-0.60;99.90;;;;;;5050898;28;20049;-67
2022/11/19 04:56:28;;;;;;;13.45;7.18;;;-0.60;99.90;;;;;;5026558;28;20059;-67
2022/11/19 04:58:54;;;;;;;11.75;6.80;;;-0.60;99.90;;;;;;5047468;28;20033;-66
2022/11/19 05:01:19;;;;;;;13.05;6.72;;;-0.60;99.90;;;;;;5050714;28;20029;-66
2022/11/19 05:03:46;;;;;;;12.30;6.40;;;-0.60;99.90;;;;;;5045899;28;20079;-66
2022/11/19 05:06:12;;;;;;;14.43;7.18;;;-0.60;99.90;;;;;;5050016;28;20056;-66
2022/11/19 05:08:38;;;;;;;16.05;6.97;;;-0.60;99.90;;;;;;5051026;28;20041;-66
2022/11/19 05:11:04;;;;;;;13.55;7.28;;;-0.60;99.90;;;;;;5044438;28;20059;-66
2022/11/19 05:13:29;;;;;;;15.07;6.72;;;-0.60;99.90;;;;;;5036890;28;20043;-67
2022/11/19 05:15:55;;;;;;;13.80;6.75;;;-0.60;99.90;;;;;;5050708;28;20069;-67
2022/11/19 05:18:21;;;;;;;13.82;7.28;;;-0.60;99.90;;;;;;5049834;28;20044;-66
2022/11/19 05:20:47;;;;;;;13.82;7.00;;;-0.70;99.90;;;;;;5033982;28;20407;-65
2022/11/19 05:23:12;;;;;;;13.20;7.25;;;-0.70;99.90;;;;;;5049083;28;20029;-67
2022/11/19 05:25:38;;;;;;;13.80;7.03;;;-0.70;99.90;;;;;;5054430;28;20551;-66
2022/11/19 05:28:04;;;;;;;13.88;7.32;;;-0.70;99.90;;;;;;5050330;28;20382;-65
2022/11/19 05:30:29;;;;;;;13.73;7.07;;;-0.70;99.90;;;;;;5052267;28;20162;-67
2022/11/19 05:32:55;;;;;;;13.32;6.93;;;-0.70;99.90;;;;;;5054067;28;20037;-66
2022/11/19 05:35:21;;;;;;;14.88;7.55;;;-0.70;99.90;;;;;;5054478;28;20037;-66
2022/11/19 05:37:50;;;;;;;12.52;6.95;;;-0.70;99.90;;;;;;5044407;28;20049;-65
2022/11/19 05:40:16;;;;;;;14.93;8.43;;;-0.80;99.90;;;;;;5049143;28;20501;-67
2022/11/19 05:42:42;;;;;;;14.07;7.80;;;-0.80;99.90;;;;;;5054201;28;20122;-66
2022/11/19 05:45:08;;;;;;;14.35;7.55;;;-0.80;99.90;;;;;;5041069;28;20077;-66
2022/11/19 05:47:34;;;;;;;16.00;8.27;;;-0.80;99.90;;;;;;5038318;28;20037;-66
2022/11/19 05:49:59;;;;;;;15.48;8.07;;;-0.80;99.90;;;;;;5036300;28;20447;-66
2022/11/19 05:52:25;;;;;;;14.73;8.32;;;-0.80;99.90;;;;;;5049768;28;20086;-66
2022/11/19 05:54:50;;;;;;;15.95;7.47;;;-0.80;99.90;;;;;;5051506;28;20040;-67
2022/11/19 05:57:16;;;;;;;15.00;7.30;;;-0.90;99.90;;;;;;5058256;28;20039;-66
2022/11/19 05:59:41;;;;;;;13.63;7.50;;;-0.90;99.90;;;;;;5049202;28;20124;-65
2022/11/19 06:02:07;;;;;;;14.65;8.10;;;-0.90;99.90;;;;;;5058361;28;20135;-66
2022/11/19 06:04:33;;;;;;;15.18;8.63;;;-1.00;99.90;;;;;;5061776;28;20036;-66
2022/11/19 06:06:58;;;;;;;15.45;8.13;;;-1.00;99.90;;;;;;5035638;28;20048;-66
2022/11/19 06:09:24;;;;;;;17.42;8.50;;;-0.90;99.90;;;;;;5040217;28;20102;-66
2022/11/19 06:11:49;;;;;;;19.88;9.15;;;-1.00;99.90;;;;;;5052397;28;20041;-66
2022/11/19 06:14:21;;;;;;;16.52;8.52;;;-1.00;99.90;;;;;;5058336;28;20060;-66
2022/11/19 06:16:51;;;;;;;16.67;8.65;;;-0.90;99.90;;;;;;5063272;28;20116;-66
2022/11/19 06:19:17;;;;;;;18.95;9.55;;;-0.90;99.90;;;;;;5030441;28;20036;-65
2022/11/19 06:21:43;;;;;;;21.80;8.93;;;-0.90;99.90;;;;;;5051681;28;20087;-67
2022/11/19 06:24:09;;;;;;;16.63;9.30;;;-0.90;99.90;;;;;;5040403;28;20608;-66
2022/11/19 06:26:35;;;;;;;20.25;9.75;;;-0.90;99.90;;;;;;5053262;28;20120;-66
2022/11/19 06:29:01;;;;;;;16.35;8.23;;;-0.90;99.90;;;;;;5046477;28;20032;-66
2022/11/19 06:31:27;;;;;;;16.30;8.77;;;-0.90;99.90;;;;;;5042714;28;20037;-66
2022/11/19 06:33:52;;;;;;;18.65;9.65;;;-0.90;99.90;;;;;;5058521;28;20035;-66
2022/11/19 06:36:19;;;;;;;18.23;8.65;;;-1.00;99.90;;;;;;5058215;28;20488;-66
2022/11/19 06:38:44;;;;;;;17.27;9.50;;;-1.00;99.90;;;;;;5062845;28;20036;-66
2022/11/19 06:41:10;;;;;;;16.15;8.63;;;-1.00;99.90;;;;;;5045717;28;20045;-65
2022/11/19 06:43:36;;;;;;;18.85;9.15;;;-0.90;99.90;;;;;;5040721;28;20397;-65
2022/11/19 06:46:01;;;;;;;17.30;9.25;;;-1.00;99.90;;;;;;5050820;28;20049;-67
2022/11/19 06:48:27;;;;;;;19.70;10.23;;;-1.00;99.90;;;;;;5037229;28;20041;-66
2022/11/19 06:50:52;;;;;;;16.25;8.68;;;-1.10;99.90;;;;;;5052764;28;20045;-66
2022/11/19 06:53:18;;;;;;;14.18;8.10;;;-1.10;99.90;;;;;;5050317;28;20048;-67
2022/11/19 06:55:44;;;;;;;19.85;10.13;;;-1.10;99.90;;;;;;5034934;28;20099;-68
2022/11/19 06:58:09;;;;;;;19.95;9.93;;;-1.10;99.90;;;;;;5049745;28;20487;-67
2022/11/19 07:00:35;;;;;;;19.75;9.98;;;-1.10;99.90;;;;;;5040193;28;20041;-66
2022/11/19 07:03:01;;;;;;;17.55;8.57;;;-1.10;99.90;;;;;;5034981;28;20045;-65
2022/11/19 07:05:27;;;;;;;16.83;8.52;;;-1.10;99.90;;;;;;5036263;28;20048;-66
2022/11/19 07:07:52;;;;;;;20.02;9.88;;;-1.10;99.90;;;;;;5050746;28;20044;-66
2022/11/19 07:10:18;;;;;;;20.05;10.23;;;-1.10;99.90;;;;;;5050887;28;20044;-66
2022/11/19 07:12:44;;;;;;;18.85;9.90;;;-1.20;99.90;;;;;;5042899;28;20040;-66
2022/11/19 07:15:10;;;;;;;19.80;9.50;;;-1.10;99.90;;;;;;5043958;28;20033;-66
2022/11/19 07:17:36;;;;;;;16.20;8.25;;;-1.10;99.90;;;;;;5034034;28;20084;-65
2022/11/19 07:20:03;;;;;;;17.10;9.05;;;-1.10;99.90;;;;;;5048082;28;20052;-66
2022/11/19 07:22:29;;;;;;;18.30;9.10;;;-1.10;99.90;;;;;;5049885;28;20115;-66
2022/11/19 07:24:54;;;;;;;17.50;9.43;;;-1.10;99.90;;;;;;5032580;28;20162;-66
2022/11/19 07:27:20;;;;;;;15.70;8.15;;;-1.10;99.90;;;;;;5041431;28;20495;-66
2022/11/19 07:29:45;;;;;;;19.52;10.02;;;-1.10;99.90;;;;;;5044722;28;20041;-65
2022/11/19 07:32:11;;;;;;;18.52;9.60;;;-1.10;99.90;;;;;;5049709;28;20048;-65
2022/11/19 07:34:36;;;;;;;20.40;10.57;;;-1.00;99.90;;;;;;5035906;28;20115;-66
2022/11/19 07:37:02;;;;;;;16.02;8.52;;;-1.10;99.90;;;;;;5053265;28;20048;-65
2022/11/19 07:39:28;;;;;;;19.10;9.10;;;-1.00;99.90;;;;;;5052375;28;20033;-66
2022/11/19 07:44:38;;;;;;;18.48;8.93;;;-1.00;99.90;;;;;;5044370;28;20040;-65
2022/11/19 07:47:06;;;;;;;18.13;8.85;;;-1.00;99.90;;;;;;5033822;28;20053;-66
2022/11/19 07:49:32;;;;;;;15.65;8.52;;;-1.10;99.90;;;;;;5045895;28;20035;-65
2022/11/19 07:51:58;;;;;;;16.90;9.13;;;-1.00;99.90;;;;;;5034400;28;20045;-67
2022/11/19 07:54:24;;;;;;;16.92;8.98;;;-1.00;99.90;;;;;;5050214;28;20052;-67
2022/11/19 07:56:49;;;;;;;18.25;8.38;;;-1.00;99.90;;;;;;5033790;28;20045;-65
2022/11/19 07:59:15;;;;;;;20.75;9.80;;;-1.00;99.90;;;;;;5046205;28;20028;-67
2022/11/19 08:01:41;;;;;;;19.15;10.07;;;-1.00;99.90;;;;;;5052616;28;20044;-66
2022/11/19 08:04:06;;;;;;;19.05;9.50;;;-0.90;99.90;;;;;;5034736;28;20393;-65
2022/11/19 08:06:35;;;;;;;18.50;9.05;;;-0.90;99.90;;;;;;5048376;28;20079;-66
2022/11/19 08:09:02;;;;;;;18.00;8.43;;;-0.80;99.90;;;;;;5029820;28;20124;-63
2022/11/19 08:11:28;;;;;;;16.38;8.50;;;-0.90;99.90;;;;;;5052810;28;20048;-67
2022/11/19 08:13:54;;;;;;;18.23;8.43;;;-0.80;99.90;;;;;;5053055;28;20044;-66
2022/11/19 08:19:10;;;;;;;18.05;8.82;;;-0.70;99.90;;;;;;5030544;28;20530;-66
2022/11/19 08:21:39;;;;;;;17.50;9.43;;;-0.70;99.90;;;;;;5050172;28;20039;-66
2022/11/19 08:24:06;;;;;;;18.02;9.25;;;-0.70;99.90;;;;;;5039229;28;20038;-65
2022/11/19 08:26:31;;;;;;;14.48;8.07;;;-0.70;99.90;;;;;;5046175;28;20037;-66
2022/11/19 08:28:57;;;;;;;17.48;9.38;;;-0.60;99.90;;;;;;5051901;28;20102;-65
2022/11/19 08:31:23;;;;;;;14.55;7.75;;;-0.60;99.90;;;;;;5048658;28;20106;-66
2022/11/19 08:33:48;;;;;;;16.17;8.60;;;-0.60;99.90;;;;;;5037635;28;20037;-66
2022/11/19 08:36:14;;;;;;;17.67;8.45;;;-0.50;99.90;;;;;;5048900;28;20047;-66
2022/11/19 08:38:39;;;;;;;15.63;8.02;;;-0.40;99.90;;;;;;5050661;28;20077;-64
2022/11/19 08:43:49;;;;;;;16.17;7.80;;;-0.30;99.90;;;;;;5032359;28;20140;-66
2022/11/19 08:46:14;;;;;;;18.25;8.90;;;-0.30;99.90;;;;;;5042486;28;20132;-66
2022/11/19 08:48:40;;;;;;;17.33;9.00;;;-0.20;99.90;;;;;;5051212;28;20041;-66
2022/11/19 08:51:06;;;;;;;14.07;7.18;;;-0.20;99.90;;;;;;5051253;28;20093;-67
2022/11/19 08:53:32;;;;;;;17.80;9.07;;;-0.20;99.90;;;;;;5034899;28;20037;-66
2022/11/19 08:55:58;;;;;;;14.80;7.65;;;-0.10;99.90;;;;;;5037891;28;20044;-66
2022/11/19 08:58:24;;;;;;;17.75;8.60;;;-0.10;99.90;;;;;;5017601;28;20041;-67
2022/11/19 09:00:50;;;;;;;13.77;7.20;;;-0.10;99.90;;;;;;5055120;28;20044;-67
2022/11/19 09:03:16;;;;;;;15.30;8.35;;;-0.10;99.90;;;;;;5054171;28;20041;-67
2022/11/19 09:05:41;;;;;;;15.85;8.30;;;0.00;99.90;;;;;;5038798;28;20130;-66
2022/11/19 09:08:07;;;;;;;17.83;9.48;;;0.00;99.90;;;;;;5051752;28;20045;-67
2022/11/19 09:10:33;;;;;;;15.35;7.72;;;0.10;99.90;;;;;;5055322;28;20098;-66
2022/11/19 09:13:04;;;;;;;18.85;9.43;;;0.10;99.90;;;;;;5048630;28;20047;-66
2022/11/19 09:15:29;;;;;;;20.45;8.68;;;0.10;99.90;;;;;;5041975;28;20042;-66
2022/11/19 09:17:55;;;;;;;16.17;8.23;;;0.20;99.90;;;;;;5037084;28;20042;-66
2022/11/19 09:20:21;;;;;;;18.05;9.30;;;0.20;99.90;;;;;;5052853;28;20040;-66
2022/11/19 09:22:46;;;;;;;16.92;8.63;;;0.20;99.90;;;;;;5053753;28;20041;-67
2022/11/19 09:25:12;;;;;;;19.55;8.65;;;0.30;99.90;;;;;;5047050;28;20700;-67
2022/11/19 09:27:37;;;;;;;16.55;8.13;;;0.30;99.90;;;;;;5044059;28;20033;-67
2022/11/19 09:30:05;;;;;;;14.55;7.82;;;0.30;99.90;;;;;;5050236;28;20051;-66
2022/11/19 09:32:31;;;;;;;17.88;8.43;;;0.40;99.90;;;;;;5046330;28;20037;-66
2022/11/19 09:34:57;;;;;;;16.02;8.40;;;0.40;99.90;;;;;;5054550;28;20086;-64
2022/11/19 09:37:22;;;;;;;16.45;9.10;;;0.50;99.90;;;;;;5054807;28;20048;-66
2022/11/19 09:39:48;;;;;;;16.00;8.32;;;0.50;99.90;;;;;;5040592;28;20037;-66
2022/11/19 09:42:27;;;;;;;17.45;8.00;;;0.60;99.90;;;;;;5053869;28;20047;-67
2022/11/19 09:45:18;;;;;;;14.93;7.95;;;0.60;99.90;;;;;;5053034;28;20040;-67
2022/11/19 09:48:14;;;;;;;18.67;8.85;;;0.70;99.90;;;;;;5049277;28;20649;-66
2022/11/19 09:50:53;;;;;;;15.32;7.47;;;0.70;99.90;;;;;;5047204;28;20037;-63
2022/11/19 09:53:22;;;;;;;14.75;7.97;;;0.80;99.90;;;;;;5054283;28;20037;-66
2022/11/19 09:55:51;;;;;;;15.77;8.15;;;0.80;99.90;;;;;;5034740;28;20042;-65
2022/11/19 09:58:40;;;;;;;13.90;7.68;;;0.90;99.90;;;;;;5038475;28;20767;-68
2022/11/19 10:01:09;;;;;;;14.23;7.70;;;0.90;99.90;;;;;;5054606;28;20104;-65
2022/11/19 10:03:39;;;;;;;17.08;8.70;;;0.90;99.90;;;;;;5043064;28;20037;-66
2022/11/19 10:06:13;;;;;;;14.73;7.85;;;0.90;99.90;;;;;;5049549;28;20083;-63
2022/11/19 10:09:08;;;;;;;16.92;7.90;;;1.00;99.90;;;;;;5046796;28;20049;-66
2022/11/19 10:11:42;;;;;;;15.85;8.02;;;1.10;99.90;;;;;;4985588;28;20196;-66
2022/11/19 10:14:29;;;;;;;15.80;8.20;;;1.20;99.90;;;;;;5051288;28;20049;-67
2022/11/19 10:17:16;;;;;;;15.27;7.50;;;1.20;99.90;;;;;;5047890;28;20037;-67
2022/11/19 10:20:10;;;;;;;16.15;8.55;;;1.20;99.90;;;;;;5031930;28;20040;-68
2022/11/19 10:22:50;;;;;;;16.48;8.38;;;1.30;99.90;;;;;;5039873;28;20043;-66
2022/11/19 10:25:17;;;;;;;16.13;8.48;;;1.30;99.90;;;;;;5035210;28;20159;-66
2022/11/19 10:27:53;;;;;;;16.25;8.02;;;1.30;99.90;;;;;;5040525;28;20087;-66
2022/11/19 10:30:24;;;;;;;16.48;7.70;;;1.30;99.90;;;;;;5046362;28;20553;-68
2022/11/19 10:33:03;;;;;;;16.23;7.93;;;1.30;99.90;;;;;;5051975;28;20427;-67
2022/11/19 10:35:41;;;;;;;15.43;7.70;;;1.40;99.90;;;;;;5031608;28;20041;-67
2022/11/19 10:38:18;;;;;;;15.95;8.27;;;1.40;99.90;;;;;;5044345;28;20041;-67
2022/11/19 10:40:55;;;;;;;16.25;8.60;;;1.40;99.90;;;;;;5053199;28;20040;-67
2022/11/19 10:43:37;;;;;;;13.70;7.38;;;1.50;99.90;;;;;;5053799;28;20068;-67
2022/11/19 10:46:07;;;;;;;16.30;8.90;;;1.50;99.90;;;;;;5041451;28;20060;-64
2022/11/19 10:48:43;;;;;;;15.43;8.07;;;1.50;99.90;;;;;;5036456;28;20120;-67
2022/11/19 10:51:20;;;;;;;15.43;8.35;;;1.60;99.90;;;;;;5052164;28;20045;-68
2022/11/19 10:53:46;;;;;;;14.15;7.43;;;1.60;99.90;;;;;;5029353;28;20071;-67
2022/11/19 10:56:17;;;;;;;16.98;8.73;;;1.70;99.90;;;;;;5052569;28;20124;-67
2022/11/19 10:58:47;;;;;;;15.40;8.15;;;1.70;99.90;;;;;;5053428;28;20041;-67
2022/11/19 11:01:27;;;;;;;18.77;8.05;;;1.80;99.90;;;;;;5047142;28;20084;-67
2022/11/19 11:04:25;;;;;;;14.43;7.78;;;1.80;99.90;;;;;;5038565;28;20686;-68
2022/11/19 11:07:02;;;;;;;11.52;6.75;;;1.90;99.90;;;;;;5041040;28;20079;-67
2022/11/19 11:09:37;;;;;;;13.70;7.53;;;1.90;99.90;;;;;;5047163;28;21089;-67
2022/11/19 11:15:15;;;;;;;11.52;6.30;;;2.00;99.90;;;;;;5048846;28;20574;-65
2022/11/19 11:17:43;;;;;;;12.20;6.35;;;2.00;99.90;;;;;;5053022;28;20117;-65
2022/11/19 11:20:15;;;;;;;12.05;6.40;;;2.10;99.90;;;;;;5046282;28;20490;-66
2022/11/19 11:22:42;;;;;;;13.38;7.15;;;2.00;99.90;;;;;;5051040;28;20095;-66
2022/11/19 11:25:21;;;;;;;14.70;6.95;;;2.10;99.90;;;;;;5050711;28;20091;-65
2022/11/19 11:28:02;;;;;;;13.10;6.97;;;2.10;99.90;;;;;;5037682;28;20148;-65
2022/11/19 11:30:27;;;;;;;12.65;7.35;;;2.20;99.90;;;;;;5050475;28;20045;-66
2022/11/19 11:32:53;;;;;;;13.98;7.47;;;2.20;99.90;;;;;;5052140;28;20043;-66
2022/11/19 11:35:31;;;;;;;14.68;6.88;;;2.20;99.90;;;;;;5049769;28;20037;-66
2022/11/19 11:37:59;;;;;;;12.57;6.90;;;2.30;99.90;;;;;;5035274;28;20040;-66
2022/11/19 11:40:24;;;;;;;13.40;7.03;;;2.30;99.90;;;;;;5036264;28;20128;-66
2022/11/19 11:42:51;;;;;;;14.23;6.40;;;2.40;99.90;;;;;;5040525;28;20140;-64
2022/11/19 11:45:29;;;;;;;11.80;6.57;;;2.30;99.90;;;;;;5029649;28;20045;-65
2022/11/19 11:47:56;;;;;;;11.57;6.22;;;2.40;99.90;;;;;;5050831;28;20110;-65
2022/11/19 11:50:26;;;;;;;12.43;6.43;;;2.40;99.90;;;;;;5049035;28;20033;-63
2022/11/19 11:52:54;;;;;;;11.40;6.32;;;2.40;99.90;;;;;;5035909;28;20051;-65
2022/11/19 11:55:23;;;;;;;10.65;6.03;;;2.40;99.90;;;;;;5051478;28;20041;-65
2022/11/19 11:58:04;;;;;;;9.30;4.75;;;2.40;99.90;;;;;;5050648;28;20041;-64
2022/11/19 12:00:36;;;;;;;10.57;5.65;;;2.40;99.50;;;;;;5038466;28;20032;-63
2022/11/19 12:03:08;;;;;;;10.23;5.90;;;2.40;99.60;;;;;;5039809;28;20037;-64
2022/11/19 12:06:01;;;;;;;9.60;5.70;;;2.50;99.90;;;;;;5025154;28;20098;-64
2022/11/19 12:08:26;;;;;;;11.07;5.97;;;2.50;99.90;;;;;;5047405;28;20048;-65
2022/11/19 12:11:08;;;;;;;12.45;5.68;;;2.60;99.90;;;;;;5040484;28;20040;-65
2022/11/19 12:13:56;;;;;;;10.60;6.07;;;2.60;99.90;;;;;;5050470;28;20068;-64
2022/11/19 12:16:33;;;;;;;9.60;5.40;;;2.60;99.90;;;;;;5046059;28;20120;-64
2022/11/19 12:19:20;;;;;;;9.52;5.25;;;2.70;99.90;;;;;;5047346;28;20056;-65
2022/11/19 12:22:11;;;;;;;10.10;5.43;;;2.60;99.60;;;;;;5051363;28;20044;-63
2022/11/19 12:24:59;;;;;;;11.25;5.47;;;2.70;99.90;;;;;;5048645;28;20136;-63
2022/11/19 12:27:48;;;;;;;10.73;6.25;;;2.70;99.40;;;;;;5049495;28;20445;-63
2022/11/19 12:30:29;;;;;;;15.13;5.95;;;2.60;99.90;;;;;;5022025;28;20069;-61
2022/11/19 12:33:13;;;;;;;13.10;7.20;;;2.60;99.90;;;;;;5029895;28;20057;-61
2022/11/19 12:35:55;;;;;;;10.65;6.18;;;2.60;99.90;;;;;;5033249;28;20044;-62
2022/11/19 12:38:53;;;;;;;12.40;6.90;;;2.50;99.90;;;;;;5049930;28;20521;-63
2022/11/19 12:41:38;;;;;;;10.57;5.57;;;2.60;99.90;;;;;;5063919;22;20137;-64
2022/11/19 12:44:23;;;;;;;14.55;6.55;;;2.60;99.90;;;;;;5044029;28;20090;-65
2022/11/19 12:47:16;;;;;;;11.48;6.45;;;2.60;99.90;;;;;;5050284;28;20473;-65
2022/11/19 12:50:00;;;;;;;12.88;7.10;;;2.60;99.90;;;;;;5067467;28;20040;-65
2022/11/19 12:52:54;;;;;;;9.82;5.82;;;2.70;99.90;;;;;;5050090;28;20051;-65
2022/11/19 12:55:53;;;;;;;9.65;5.75;;;2.70;99.90;;;;;;5055941;28;20546;-66
2022/11/19 12:58:27;;;;;;;11.23;5.53;;;2.70;99.90;;;;;;5052295;28;20044;-64
2022/11/19 13:01:00;;;;;;;12.07;5.60;;;2.70;99.90;;;;;;5057015;28;20036;-63
2022/11/19 13:04:05;;;;;;;12.27;6.32;;;2.70;99.90;;;;;;5065367;28;20040;-64
2022/11/19 13:06:50;;;;;;;10.10;5.78;;;2.70;99.90;;;;;;5035082;28;20109;-64
2022/11/19 13:09:37;;;;;;;11.95;6.50;;;2.70;99.90;;;;;;5058580;28;20041;-63
2022/11/19 13:12:38;;;;;;;10.55;6.28;;;2.70;99.90;;;;;;5069764;28;20033;-64
2022/11/19 13:15:13;;;;;;;11.65;6.13;;;2.70;99.90;;;;;;5062232;28;20802;-64
2022/11/19 13:17:43;;;;;;;11.60;5.72;;;2.70;99.90;;;;;;5046874;28;20517;-64
2022/11/19 13:20:35;;;;;;;11.32;6.28;;;2.70;99.90;;;;;;5048677;28;20037;-64
2022/11/19 13:23:04;;;;;;;10.30;6.35;;;2.70;99.90;;;;;;5049923;28;20037;-65
2022/11/19 13:25:44;;;;;;;9.02;5.40;;;2.70;99.90;;;;;;5038898;28;20052;-64